sensor_id;sensor_type;location;lat;lon;timestamp;P1;durP1;ratioP1;P2;durP2;ratioP2
27303;SDS011;14791;52.392;13.092;2023-10-31T00:01:31;2.50;;;2.40;;
27303;SDS011;14791;52.392;13.092;2023-10-31T00:04:00;2.45;;;2.35;;
27303;SDS011;14791;52.392;13.092;2023-10-31T00:06:29;2.42;;;2.33;;
27303;SDS011;14791;52.392;13.092;2023-10-31T00:08:58;2.40;;;2.30;;
27303;SDS011;14791;52.392;13.092;2023-10-31T00:11:27;2.37;;;2.27;;
27303;SDS011;14791;52.392;13.092;2023-10-31T00:13:57;2.12;;;2.02;;
27303;SDS011;14791;52.392;13.092;2023-10-31T00:16:26;2.02;;;1.92;;
27303;SDS011;14791;52.392;13.092;2023-10-31T00:18:54;6.37;;;2.30;;
27303;SDS011;14791;52.392;13.092;2023-10-31T00:21:24;2.10;;;2.10;;
27303;SDS011;14791;52.392;13.092;2023-10-31T00:23:53;2.27;;;2.17;;
27303;SDS011;14791;52.392;13.092;2023-10-31T00:26:22;2.90;;;2.70;;
27303;SDS011;14791;52.392;13.092;2023-10-31T00:28:52;5.12;;;4.83;;
27303;SDS011;14791;52.392;13.092;2023-10-31T00:31:21;3.20;;;3.10;;
27303;SDS011;14791;52.392;13.092;2023-10-31T00:33:50;2.77;;;2.67;;
27303;SDS011;14791;52.392;13.092;2023-10-31T00:36:19;2.75;;;2.55;;
27303;SDS011;14791;52.392;13.092;2023-10-31T00:38:48;2.42;;;2.33;;
27303;SDS011;14791;52.392;13.092;2023-10-31T00:41:17;2.52;;;2.30;;
27303;SDS011;14791;52.392;13.092;2023-10-31T00:43:45;2.67;;;2.58;;
27303;SDS011;14791;52.392;13.092;2023-10-31T00:46:14;2.60;;;2.40;;
27303;SDS011;14791;52.392;13.092;2023-10-31T00:48:43;2.60;;;2.50;;
27303;SDS011;14791;52.392;13.092;2023-10-31T00:51:12;2.67;;;2.58;;
27303;SDS011;14791;52.392;13.092;2023-10-31T00:53:41;2.58;;;2.47;;
27303;SDS011;14791;52.392;13.092;2023-10-31T00:56:10;2.58;;;2.40;;
27303;SDS011;14791;52.392;13.092;2023-10-31T00:58:39;2.42;;;2.33;;
27303;SDS011;14791;52.392;13.092;2023-10-31T01:01:08;2.40;;;2.30;;
27303;SDS011;14791;52.392;13.092;2023-10-31T01:03:37;2.62;;;2.42;;
27303;SDS011;14791;52.392;13.092;2023-10-31T01:06:07;2.85;;;2.75;;
27303;SDS011;14791;52.392;13.092;2023-10-31T01:08:36;2.90;;;2.80;;
27303;SDS011;14791;52.392;13.092;2023-10-31T01:11:05;2.62;;;2.52;;
27303;SDS011;14791;52.392;13.092;2023-10-31T01:13:34;2.72;;;2.52;;
27303;SDS011;14791;52.392;13.092;2023-10-31T01:16:03;2.72;;;2.62;;
27303;SDS011;14791;52.392;13.092;2023-10-31T01:18:32;2.95;;;2.85;;
27303;SDS011;14791;52.392;13.092;2023-10-31T01:21:01;2.85;;;2.67;;
27303;SDS011;14791;52.392;13.092;2023-10-31T01:23:30;2.12;;;2.08;;
27303;SDS011;14791;52.392;13.092;2023-10-31T01:25:59;2.40;;;2.30;;
27303;SDS011;14791;52.392;13.092;2023-10-31T01:28:27;2.55;;;2.45;;
27303;SDS011;14791;52.392;13.092;2023-10-31T01:30:56;2.52;;;2.42;;
27303;SDS011;14791;52.392;13.092;2023-10-31T01:33:25;2.30;;;2.20;;
27303;SDS011;14791;52.392;13.092;2023-10-31T01:35:54;2.65;;;2.52;;
27303;SDS011;14791;52.392;13.092;2023-10-31T01:38:23;2.60;;;2.50;;
27303;SDS011;14791;52.392;13.092;2023-10-31T01:40:52;2.50;;;2.40;;
27303;SDS011;14791;52.392;13.092;2023-10-31T01:43:34;2.55;;;2.52;;
27303;SDS011;14791;52.392;13.092;2023-10-31T01:46:05;2.47;;;2.30;;
27303;SDS011;14791;52.392;13.092;2023-10-31T01:48:34;2.77;;;2.67;;
27303;SDS011;14791;52.392;13.092;2023-10-31T01:51:03;2.50;;;2.40;;
27303;SDS011;14791;52.392;13.092;2023-10-31T01:53:33;2.50;;;2.40;;
27303;SDS011;14791;52.392;13.092;2023-10-31T01:56:03;2.72;;;2.62;;
27303;SDS011;14791;52.392;13.092;2023-10-31T01:58:34;2.35;;;2.25;;
27303;SDS011;14791;52.392;13.092;2023-10-31T02:01:05;2.25;;;2.15;;
27303;SDS011;14791;52.392;13.092;2023-10-31T02:03:34;2.50;;;2.40;;
27303;SDS011;14791;52.392;13.092;2023-10-31T02:06:03;2.47;;;2.40;;
27303;SDS011;14791;52.392;13.092;2023-10-31T02:08:33;2.35;;;2.25;;
27303;SDS011;14791;52.392;13.092;2023-10-31T02:11:02;2.50;;;2.33;;
27303;SDS011;14791;52.392;13.092;2023-10-31T02:13:33;2.47;;;2.37;;
27303;SDS011;14791;52.392;13.092;2023-10-31T02:16:01;2.80;;;2.65;;
27303;SDS011;14791;52.392;13.092;2023-10-31T02:18:31;2.72;;;2.62;;
27303;SDS011;14791;52.392;13.092;2023-10-31T02:21:00;3.23;;;2.63;;
27303;SDS011;14791;52.392;13.092;2023-10-31T02:23:29;2.75;;;2.65;;
27303;SDS011;14791;52.392;13.092;2023-10-31T02:25:58;2.98;;;2.77;;
27303;SDS011;14791;52.392;13.092;2023-10-31T02:28:27;2.30;;;2.30;;
27303;SDS011;14791;52.392;13.092;2023-10-31T02:30:56;2.53;;;2.33;;
27303;SDS011;14791;52.392;13.092;2023-10-31T02:33:25;2.40;;;2.30;;
27303;SDS011;14791;52.392;13.092;2023-10-31T02:35:53;2.22;;;2.12;;
27303;SDS011;14791;52.392;13.092;2023-10-31T02:38:22;2.30;;;2.20;;
27303;SDS011;14791;52.392;13.092;2023-10-31T02:40:51;2.20;;;2.10;;
27303;SDS011;14791;52.392;13.092;2023-10-31T02:43:21;2.67;;;2.40;;
27303;SDS011;14791;52.392;13.092;2023-10-31T02:45:49;1.85;;;1.85;;
27303;SDS011;14791;52.392;13.092;2023-10-31T02:48:18;2.30;;;2.20;;
27303;SDS011;14791;52.392;13.092;2023-10-31T02:50:47;2.70;;;2.60;;
27303;SDS011;14791;52.392;13.092;2023-10-31T02:53:17;2.30;;;2.20;;
27303;SDS011;14791;52.392;13.092;2023-10-31T02:55:47;2.75;;;2.58;;
27303;SDS011;14791;52.392;13.092;2023-10-31T02:58:15;2.47;;;2.40;;
27303;SDS011;14791;52.392;13.092;2023-10-31T03:00:44;2.50;;;2.40;;
27303;SDS011;14791;52.392;13.092;2023-10-31T03:03:13;2.37;;;2.27;;
27303;SDS011;14791;52.392;13.092;2023-10-31T03:05:42;2.42;;;2.22;;
27303;SDS011;14791;52.392;13.092;2023-10-31T03:08:11;2.08;;;1.98;;
27303;SDS011;14791;52.392;13.092;2023-10-31T03:10:40;2.47;;;2.30;;
27303;SDS011;14791;52.392;13.092;2023-10-31T03:13:10;2.43;;;2.33;;
27303;SDS011;14791;52.392;13.092;2023-10-31T03:15:38;2.47;;;2.37;;
27303;SDS011;14791;52.392;13.092;2023-10-31T03:18:07;2.43;;;2.30;;
27303;SDS011;14791;52.392;13.092;2023-10-31T03:20:36;2.80;;;2.70;;
27303;SDS011;14791;52.392;13.092;2023-10-31T03:23:05;2.40;;;2.30;;
27303;SDS011;14791;52.392;13.092;2023-10-31T03:25:34;2.85;;;2.75;;
27303;SDS011;14791;52.392;13.092;2023-10-31T03:28:03;2.75;;;2.30;;
27303;SDS011;14791;52.392;13.092;2023-10-31T03:30:34;2.30;;;2.20;;
27303;SDS011;14791;52.392;13.092;2023-10-31T03:33:03;3.52;;;2.02;;
27303;SDS011;14791;52.392;13.092;2023-10-31T03:35:32;3.20;;;3.00;;
27303;SDS011;14791;52.392;13.092;2023-10-31T03:38:01;2.90;;;2.70;;
27303;SDS011;14791;52.392;13.092;2023-10-31T03:40:30;2.83;;;2.53;;
27303;SDS011;14791;52.392;13.092;2023-10-31T03:42:59;2.40;;;2.27;;
27303;SDS011;14791;52.392;13.092;2023-10-31T03:45:29;2.27;;;2.20;;
27303;SDS011;14791;52.392;13.092;2023-10-31T03:47:59;2.13;;;2.07;;
27303;SDS011;14791;52.392;13.092;2023-10-31T03:50:28;2.75;;;2.47;;
27303;SDS011;14791;52.392;13.092;2023-10-31T03:52:57;2.15;;;2.15;;
27303;SDS011;14791;52.392;13.092;2023-10-31T03:55:26;2.47;;;2.37;;
27303;SDS011;14791;52.392;13.092;2023-10-31T03:57:57;2.80;;;2.70;;
27303;SDS011;14791;52.392;13.092;2023-10-31T04:00:26;2.77;;;2.67;;
27303;SDS011;14791;52.392;13.092;2023-10-31T04:02:55;2.73;;;2.63;;
27303;SDS011;14791;52.392;13.092;2023-10-31T04:05:24;2.70;;;2.60;;
27303;SDS011;14791;52.392;13.092;2023-10-31T04:07:53;2.47;;;2.37;;
27303;SDS011;14791;52.392;13.092;2023-10-31T04:10:22;2.90;;;2.80;;
27303;SDS011;14791;52.392;13.092;2023-10-31T04:12:52;3.10;;;2.90;;
27303;SDS011;14791;52.392;13.092;2023-10-31T04:15:21;2.70;;;2.60;;
27303;SDS011;14791;52.392;13.092;2023-10-31T04:17:50;2.67;;;2.47;;
27303;SDS011;14791;52.392;13.092;2023-10-31T04:20:18;2.85;;;2.75;;
27303;SDS011;14791;52.392;13.092;2023-10-31T04:22:47;2.83;;;2.63;;
27303;SDS011;14791;52.392;13.092;2023-10-31T04:25:16;3.07;;;2.93;;
27303;SDS011;14791;52.392;13.092;2023-10-31T04:27:45;2.70;;;2.33;;
27303;SDS011;14791;52.392;13.092;2023-10-31T04:30:14;2.90;;;2.70;;
27303;SDS011;14791;52.392;13.092;2023-10-31T04:32:43;2.30;;;2.30;;
27303;SDS011;14791;52.392;13.092;2023-10-31T04:35:12;2.77;;;2.70;;
27303;SDS011;14791;52.392;13.092;2023-10-31T04:37:41;2.83;;;2.72;;
27303;SDS011;14791;52.392;13.092;2023-10-31T04:40:10;3.00;;;2.80;;
27303;SDS011;14791;52.392;13.092;2023-10-31T04:42:40;2.95;;;2.85;;
27303;SDS011;14791;52.392;13.092;2023-10-31T04:45:10;2.47;;;2.37;;
27303;SDS011;14791;52.392;13.092;2023-10-31T04:47:39;2.60;;;2.60;;
27303;SDS011;14791;52.392;13.092;2023-10-31T04:50:09;3.03;;;2.83;;
27303;SDS011;14791;52.392;13.092;2023-10-31T04:52:38;2.60;;;2.50;;
27303;SDS011;14791;52.392;13.092;2023-10-31T04:55:07;2.33;;;2.27;;
27303;SDS011;14791;52.392;13.092;2023-10-31T04:57:36;2.33;;;2.33;;
27303;SDS011;14791;52.392;13.092;2023-10-31T05:00:05;2.60;;;2.50;;
27303;SDS011;14791;52.392;13.092;2023-10-31T05:02:35;2.90;;;2.80;;
27303;SDS011;14791;52.392;13.092;2023-10-31T05:05:04;2.80;;;2.70;;
27303;SDS011;14791;52.392;13.092;2023-10-31T05:07:33;2.27;;;2.23;;
27303;SDS011;14791;52.392;13.092;2023-10-31T05:10:02;2.23;;;2.23;;
27303;SDS011;14791;52.392;13.092;2023-10-31T05:12:31;2.10;;;1.97;;
27303;SDS011;14791;52.392;13.092;2023-10-31T05:15:00;1.80;;;1.80;;
27303;SDS011;14791;52.392;13.092;2023-10-31T05:17:29;2.10;;;2.00;;
27303;SDS011;14791;52.392;13.092;2023-10-31T05:19:58;2.33;;;2.22;;
27303;SDS011;14791;52.392;13.092;2023-10-31T05:22:27;1.80;;;1.80;;
27303;SDS011;14791;52.392;13.092;2023-10-31T05:24:56;2.00;;;2.00;;
27303;SDS011;14791;52.392;13.092;2023-10-31T05:27:25;1.80;;;1.80;;
27303;SDS011;14791;52.392;13.092;2023-10-31T05:29:54;2.00;;;2.00;;
27303;SDS011;14791;52.392;13.092;2023-10-31T05:32:23;2.15;;;2.05;;
27303;SDS011;14791;52.392;13.092;2023-10-31T05:34:52;2.13;;;2.03;;
27303;SDS011;14791;52.392;13.092;2023-10-31T05:37:21;1.70;;;1.70;;
27303;SDS011;14791;52.392;13.092;2023-10-31T05:39:49;1.80;;;1.80;;
27303;SDS011;14791;52.392;13.092;2023-10-31T05:42:18;2.00;;;1.90;;
27303;SDS011;14791;52.392;13.092;2023-10-31T05:44:48;1.60;;;1.60;;
27303;SDS011;14791;52.392;13.092;2023-10-31T05:47:16;1.80;;;1.70;;
27303;SDS011;14791;52.392;13.092;2023-10-31T05:49:46;1.80;;;1.80;;
27303;SDS011;14791;52.392;13.092;2023-10-31T05:52:14;1.70;;;1.70;;
27303;SDS011;14791;52.392;13.092;2023-10-31T05:54:43;1.83;;;1.83;;
27303;SDS011;14791;52.392;13.092;2023-10-31T05:57:12;1.60;;;1.60;;
27303;SDS011;14791;52.392;13.092;2023-10-31T05:59:41;1.90;;;1.80;;
27303;SDS011;14791;52.392;13.092;2023-10-31T06:02:10;1.72;;;1.62;;
27303;SDS011;14791;52.392;13.092;2023-10-31T06:04:39;1.53;;;1.53;;
27303;SDS011;14791;52.392;13.092;2023-10-31T06:07:08;1.60;;;1.60;;
27303;SDS011;14791;52.392;13.092;2023-10-31T06:09:38;1.45;;;1.45;;
27303;SDS011;14791;52.392;13.092;2023-10-31T06:12:07;1.62;;;1.62;;
27303;SDS011;14791;52.392;13.092;2023-10-31T06:14:36;1.52;;;1.52;;
27303;SDS011;14791;52.392;13.092;2023-10-31T06:17:05;1.57;;;1.57;;
27303;SDS011;14791;52.392;13.092;2023-10-31T06:19:35;1.50;;;1.50;;
27303;SDS011;14791;52.392;13.092;2023-10-31T06:22:04;1.70;;;1.70;;
27303;SDS011;14791;52.392;13.092;2023-10-31T06:24:33;1.43;;;1.43;;
27303;SDS011;14791;52.392;13.092;2023-10-31T06:27:02;1.52;;;1.52;;
27303;SDS011;14791;52.392;13.092;2023-10-31T06:29:31;1.60;;;1.50;;
27303;SDS011;14791;52.392;13.092;2023-10-31T06:32:00;1.35;;;1.32;;
27303;SDS011;14791;52.392;13.092;2023-10-31T06:34:29;1.23;;;1.23;;
27303;SDS011;14791;52.392;13.092;2023-10-31T06:36:58;1.40;;;1.40;;
27303;SDS011;14791;52.392;13.092;2023-10-31T06:39:26;2.37;;;1.50;;
27303;SDS011;14791;52.392;13.092;2023-10-31T06:41:55;1.52;;;1.52;;
27303;SDS011;14791;52.392;13.092;2023-10-31T06:44:24;1.43;;;1.43;;
27303;SDS011;14791;52.392;13.092;2023-10-31T06:46:53;1.40;;;1.40;;
27303;SDS011;14791;52.392;13.092;2023-10-31T06:49:22;1.30;;;1.30;;
27303;SDS011;14791;52.392;13.092;2023-10-31T06:51:51;1.30;;;1.30;;
27303;SDS011;14791;52.392;13.092;2023-10-31T06:54:20;1.17;;;1.17;;
27303;SDS011;14791;52.392;13.092;2023-10-31T06:56:49;1.30;;;1.30;;
27303;SDS011;14791;52.392;13.092;2023-10-31T06:59:18;1.15;;;1.15;;
27303;SDS011;14791;52.392;13.092;2023-10-31T07:01:47;1.00;;;1.00;;
27303;SDS011;14791;52.392;13.092;2023-10-31T07:04:16;1.10;;;1.10;;
27303;SDS011;14791;52.392;13.092;2023-10-31T07:06:45;1.02;;;1.02;;
27303;SDS011;14791;52.392;13.092;2023-10-31T07:09:14;1.25;;;1.25;;
27303;SDS011;14791;52.392;13.092;2023-10-31T07:11:42;1.00;;;1.00;;
27303;SDS011;14791;52.392;13.092;2023-10-31T07:14:11;0.90;;;0.90;;
27303;SDS011;14791;52.392;13.092;2023-10-31T07:16:40;0.70;;;0.70;;
27303;SDS011;14791;52.392;13.092;2023-10-31T07:19:11;1.50;;;1.00;;
27303;SDS011;14791;52.392;13.092;2023-10-31T07:21:40;0.73;;;0.73;;
27303;SDS011;14791;52.392;13.092;2023-10-31T07:24:09;0.80;;;0.80;;
27303;SDS011;14791;52.392;13.092;2023-10-31T07:26:38;2.10;;;1.23;;
27303;SDS011;14791;52.392;13.092;2023-10-31T07:29:07;0.53;;;0.53;;
27303;SDS011;14791;52.392;13.092;2023-10-31T07:31:36;0.70;;;0.70;;
27303;SDS011;14791;52.392;13.092;2023-10-31T07:34:05;0.67;;;0.67;;
27303;SDS011;14791;52.392;13.092;2023-10-31T07:36:35;0.50;;;0.50;;
27303;SDS011;14791;52.392;13.092;2023-10-31T07:39:04;1.03;;;0.43;;
27303;SDS011;14791;52.392;13.092;2023-10-31T07:41:33;0.40;;;0.40;;
27303;SDS011;14791;52.392;13.092;2023-10-31T07:44:01;0.23;;;0.23;;
27303;SDS011;14791;52.392;13.092;2023-10-31T07:46:32;0.40;;;0.40;;
27303;SDS011;14791;52.392;13.092;2023-10-31T07:49:01;0.47;;;0.47;;
27303;SDS011;14791;52.392;13.092;2023-10-31T07:51:31;0.50;;;0.50;;
27303;SDS011;14791;52.392;13.092;2023-10-31T07:54:00;0.55;;;0.55;;
27303;SDS011;14791;52.392;13.092;2023-10-31T07:56:29;0.40;;;0.40;;
27303;SDS011;14791;52.392;13.092;2023-10-31T07:58:59;0.37;;;0.37;;
27303;SDS011;14791;52.392;13.092;2023-10-31T08:01:28;0.42;;;0.42;;
27303;SDS011;14791;52.392;13.092;2023-10-31T08:03:57;0.25;;;0.25;;
27303;SDS011;14791;52.392;13.092;2023-10-31T08:06:26;0.40;;;0.40;;
27303;SDS011;14791;52.392;13.092;2023-10-31T08:08:55;0.30;;;0.30;;
27303;SDS011;14791;52.392;13.092;2023-10-31T08:11:24;0.30;;;0.30;;
27303;SDS011;14791;52.392;13.092;2023-10-31T08:13:52;0.20;;;0.20;;
27303;SDS011;14791;52.392;13.092;2023-10-31T08:16:21;0.30;;;0.30;;
27303;SDS011;14791;52.392;13.092;2023-10-31T08:18:50;0.20;;;0.20;;
27303;SDS011;14791;52.392;13.092;2023-10-31T08:21:19;0.33;;;0.33;;
27303;SDS011;14791;52.392;13.092;2023-10-31T08:23:48;0.20;;;0.20;;
27303;SDS011;14791;52.392;13.092;2023-10-31T08:26:17;0.95;;;0.40;;
27303;SDS011;14791;52.392;13.092;2023-10-31T08:28:46;0.47;;;0.20;;
27303;SDS011;14791;52.392;13.092;2023-10-31T08:31:15;0.10;;;0.10;;
27303;SDS011;14791;52.392;13.092;2023-10-31T08:33:44;0.20;;;0.20;;
27303;SDS011;14791;52.392;13.092;2023-10-31T08:36:13;0.28;;;0.20;;
27303;SDS011;14791;52.392;13.092;2023-10-31T08:38:42;0.10;;;0.10;;
27303;SDS011;14791;52.392;13.092;2023-10-31T08:41:10;0.30;;;0.20;;
27303;SDS011;14791;52.392;13.092;2023-10-31T08:43:41;0.20;;;0.20;;
27303;SDS011;14791;52.392;13.092;2023-10-31T08:46:10;0.30;;;0.30;;
27303;SDS011;14791;52.392;13.092;2023-10-31T08:48:39;0.25;;;0.25;;
27303;SDS011;14791;52.392;13.092;2023-10-31T08:51:08;0.23;;;0.23;;
27303;SDS011;14791;52.392;13.092;2023-10-31T08:53:36;0.93;;;0.40;;
27303;SDS011;14791;52.392;13.092;2023-10-31T08:56:05;0.30;;;0.30;;
27303;SDS011;14791;52.392;13.092;2023-10-31T08:58:35;0.20;;;0.17;;
27303;SDS011;14791;52.392;13.092;2023-10-31T09:01:04;0.27;;;0.27;;
27303;SDS011;14791;52.392;13.092;2023-10-31T09:03:33;0.30;;;0.30;;
27303;SDS011;14791;52.392;13.092;2023-10-31T09:06:02;0.60;;;0.60;;
27303;SDS011;14791;52.392;13.092;2023-10-31T09:08:32;0.25;;;0.25;;
27303;SDS011;14791;52.392;13.092;2023-10-31T09:11:01;0.40;;;0.40;;
27303;SDS011;14791;52.392;13.092;2023-10-31T09:13:31;0.72;;;0.53;;
27303;SDS011;14791;52.392;13.092;2023-10-31T09:16:00;0.30;;;0.30;;
27303;SDS011;14791;52.392;13.092;2023-10-31T09:18:29;0.55;;;0.30;;
27303;SDS011;14791;52.392;13.092;2023-10-31T09:20:58;0.40;;;0.40;;
27303;SDS011;14791;52.392;13.092;2023-10-31T09:23:27;0.60;;;0.43;;
27303;SDS011;14791;52.392;13.092;2023-10-31T09:25:56;0.40;;;0.40;;
27303;SDS011;14791;52.392;13.092;2023-10-31T09:28:25;0.40;;;0.40;;
27303;SDS011;14791;52.392;13.092;2023-10-31T09:30:54;0.53;;;0.40;;
27303;SDS011;14791;52.392;13.092;2023-10-31T09:33:23;0.50;;;0.50;;
27303;SDS011;14791;52.392;13.092;2023-10-31T09:35:52;0.40;;;0.40;;
27303;SDS011;14791;52.392;13.092;2023-10-31T09:38:21;0.35;;;0.35;;
27303;SDS011;14791;52.392;13.092;2023-10-31T09:40:50;0.37;;;0.37;;
27303;SDS011;14791;52.392;13.092;2023-10-31T09:43:19;0.50;;;0.50;;
27303;SDS011;14791;52.392;13.092;2023-10-31T09:45:48;0.50;;;0.50;;
27303;SDS011;14791;52.392;13.092;2023-10-31T09:48:17;0.40;;;0.40;;
27303;SDS011;14791;52.392;13.092;2023-10-31T09:50:50;0.50;;;0.50;;
27303;SDS011;14791;52.392;13.092;2023-10-31T09:53:20;0.53;;;0.53;;
27303;SDS011;14791;52.392;13.092;2023-10-31T09:55:49;0.55;;;0.55;;
27303;SDS011;14791;52.392;13.092;2023-10-31T09:58:20;0.40;;;0.40;;
27303;SDS011;14791;52.392;13.092;2023-10-31T10:00:49;0.60;;;0.60;;
27303;SDS011;14791;52.392;13.092;2023-10-31T10:03:18;0.60;;;0.60;;
27303;SDS011;14791;52.392;13.092;2023-10-31T10:05:48;0.63;;;0.63;;
27303;SDS011;14791;52.392;13.092;2023-10-31T10:08:17;0.60;;;0.60;;
27303;SDS011;14791;52.392;13.092;2023-10-31T10:10:49;0.57;;;0.57;;
27303;SDS011;14791;52.392;13.092;2023-10-31T10:13:22;0.65;;;0.65;;
27303;SDS011;14791;52.392;13.092;2023-10-31T10:15:51;0.65;;;0.65;;
27303;SDS011;14791;52.392;13.092;2023-10-31T10:18:24;0.72;;;0.72;;
27303;SDS011;14791;52.392;13.092;2023-10-31T10:20:58;0.70;;;0.70;;
27303;SDS011;14791;52.392;13.092;2023-10-31T10:23:32;0.93;;;0.93;;
27303;SDS011;14791;52.392;13.092;2023-10-31T10:26:01;0.65;;;0.65;;
27303;SDS011;14791;52.392;13.092;2023-10-31T10:28:31;0.70;;;0.70;;
27303;SDS011;14791;52.392;13.092;2023-10-31T10:31:00;0.60;;;0.60;;
27303;SDS011;14791;52.392;13.092;2023-10-31T10:33:29;0.70;;;0.70;;
27303;SDS011;14791;52.392;13.092;2023-10-31T10:35:58;0.80;;;0.80;;
27303;SDS011;14791;52.392;13.092;2023-10-31T10:38:27;0.80;;;0.80;;
27303;SDS011;14791;52.392;13.092;2023-10-31T10:41:00;0.75;;;0.75;;
27303;SDS011;14791;52.392;13.092;2023-10-31T10:43:31;0.60;;;0.60;;
27303;SDS011;14791;52.392;13.092;2023-10-31T10:46:03;0.70;;;0.70;;
27303;SDS011;14791;52.392;13.092;2023-10-31T10:48:33;0.90;;;0.90;;
27303;SDS011;14791;52.392;13.092;2023-10-31T10:53:48;0.88;;;0.88;;
27303;SDS011;14791;52.392;13.092;2023-10-31T10:56:22;0.62;;;0.62;;
27303;SDS011;14791;52.392;13.092;2023-10-31T10:59:07;0.82;;;0.82;;
27303;SDS011;14791;52.392;13.092;2023-10-31T11:01:32;0.70;;;0.70;;
27303;SDS011;14791;52.392;13.092;2023-10-31T11:04:02;0.70;;;0.70;;
27303;SDS011;14791;52.392;13.092;2023-10-31T11:06:33;0.68;;;0.68;;
27303;SDS011;14791;52.392;13.092;2023-10-31T11:09:05;0.93;;;0.93;;
27303;SDS011;14791;52.392;13.092;2023-10-31T11:11:34;0.70;;;0.70;;
27303;SDS011;14791;52.392;13.092;2023-10-31T11:14:06;0.70;;;0.70;;
27303;SDS011;14791;52.392;13.092;2023-10-31T11:16:42;0.45;;;0.45;;
27303;SDS011;14791;52.392;13.092;2023-10-31T11:19:22;0.72;;;0.72;;
27303;SDS011;14791;52.392;13.092;2023-10-31T11:21:57;0.50;;;0.50;;
27303;SDS011;14791;52.392;13.092;2023-10-31T11:24:35;0.53;;;0.53;;
27303;SDS011;14791;52.392;13.092;2023-10-31T11:27:01;0.60;;;0.60;;
27303;SDS011;14791;52.392;13.092;2023-10-31T11:29:32;0.57;;;0.57;;
27303;SDS011;14791;52.392;13.092;2023-10-31T11:32:02;0.50;;;0.50;;
27303;SDS011;14791;52.392;13.092;2023-10-31T11:34:33;0.62;;;0.62;;
27303;SDS011;14791;52.392;13.092;2023-10-31T11:37:18;0.75;;;0.70;;
27303;SDS011;14791;52.392;13.092;2023-10-31T11:42:49;0.42;;;0.42;;
27303;SDS011;14791;52.392;13.092;2023-10-31T11:45:28;1.00;;;0.40;;
27303;SDS011;14791;52.392;13.092;2023-10-31T11:47:59;0.40;;;0.40;;
27303;SDS011;14791;52.392;13.092;2023-10-31T11:50:28;0.50;;;0.50;;
27303;SDS011;14791;52.392;13.092;2023-10-31T11:53:06;0.40;;;0.40;;
27303;SDS011;14791;52.392;13.092;2023-10-31T11:55:35;0.57;;;0.57;;
27303;SDS011;14791;52.392;13.092;2023-10-31T11:58:14;0.50;;;0.50;;
27303;SDS011;14791;52.392;13.092;2023-10-31T12:00:51;0.40;;;0.40;;
27303;SDS011;14791;52.392;13.092;2023-10-31T12:03:22;0.60;;;0.60;;
27303;SDS011;14791;52.392;13.092;2023-10-31T12:05:51;0.45;;;0.45;;
27303;SDS011;14791;52.392;13.092;2023-10-31T12:08:41;0.40;;;0.40;;
27303;SDS011;14791;52.392;13.092;2023-10-31T12:13:52;0.50;;;0.50;;
27303;SDS011;14791;52.392;13.092;2023-10-31T12:16:09;0.33;;;0.33;;
27303;SDS011;14791;52.392;13.092;2023-10-31T12:18:39;0.40;;;0.40;;
27303;SDS011;14791;52.392;13.092;2023-10-31T12:21:08;0.33;;;0.33;;
27303;SDS011;14791;52.392;13.092;2023-10-31T12:23:39;0.15;;;0.15;;
27303;SDS011;14791;52.392;13.092;2023-10-31T12:26:08;0.20;;;0.20;;
27303;SDS011;14791;52.392;13.092;2023-10-31T12:28:37;0.30;;;0.30;;
27303;SDS011;14791;52.392;13.092;2023-10-31T12:31:06;1.25;;;0.40;;
27303;SDS011;14791;52.392;13.092;2023-10-31T12:33:35;0.20;;;0.20;;
27303;SDS011;14791;52.392;13.092;2023-10-31T12:36:04;0.20;;;0.20;;
27303;SDS011;14791;52.392;13.092;2023-10-31T12:38:34;0.42;;;0.42;;
27303;SDS011;14791;52.392;13.092;2023-10-31T12:41:03;0.30;;;0.30;;
27303;SDS011;14791;52.392;13.092;2023-10-31T12:43:32;0.20;;;0.20;;
27303;SDS011;14791;52.392;13.092;2023-10-31T12:46:23;0.13;;;0.13;;
27303;SDS011;14791;52.392;13.092;2023-10-31T12:48:53;0.20;;;0.20;;
27303;SDS011;14791;52.392;13.092;2023-10-31T12:51:22;2.27;;;0.42;;
27303;SDS011;14791;52.392;13.092;2023-10-31T12:53:51;0.40;;;0.40;;
27303;SDS011;14791;52.392;13.092;2023-10-31T12:56:39;0.30;;;0.30;;
27303;SDS011;14791;52.392;13.092;2023-10-31T12:59:10;0.30;;;0.30;;
27303;SDS011;14791;52.392;13.092;2023-10-31T13:01:43;0.28;;;0.28;;
27303;SDS011;14791;52.392;13.092;2023-10-31T13:04:12;0.30;;;0.28;;
27303;SDS011;14791;52.392;13.092;2023-10-31T13:06:54;0.28;;;0.28;;
27303;SDS011;14791;52.392;13.092;2023-10-31T13:09:29;0.40;;;0.40;;
27303;SDS011;14791;52.392;13.092;2023-10-31T13:12:06;0.40;;;0.40;;
27303;SDS011;14791;52.392;13.092;2023-10-31T13:14:43;0.20;;;0.20;;
27303;SDS011;14791;52.392;13.092;2023-10-31T13:17:12;0.20;;;0.20;;
27303;SDS011;14791;52.392;13.092;2023-10-31T13:19:41;0.20;;;0.20;;
27303;SDS011;14791;52.392;13.092;2023-10-31T13:22:10;0.20;;;0.20;;
27303;SDS011;14791;52.392;13.092;2023-10-31T13:24:39;0.30;;;0.30;;
27303;SDS011;14791;52.392;13.092;2023-10-31T13:27:08;0.10;;;0.10;;
27303;SDS011;14791;52.392;13.092;2023-10-31T13:29:38;0.30;;;0.30;;
27303;SDS011;14791;52.392;13.092;2023-10-31T13:32:07;0.30;;;0.30;;
27303;SDS011;14791;52.392;13.092;2023-10-31T13:34:36;1.00;;;0.30;;
27303;SDS011;14791;52.392;13.092;2023-10-31T13:37:05;0.20;;;0.20;;
27303;SDS011;14791;52.392;13.092;2023-10-31T13:39:35;0.10;;;0.10;;
27303;SDS011;14791;52.392;13.092;2023-10-31T13:42:04;0.20;;;0.20;;
27303;SDS011;14791;52.392;13.092;2023-10-31T13:44:33;0.30;;;0.30;;
27303;SDS011;14791;52.392;13.092;2023-10-31T13:47:02;0.30;;;0.20;;
27303;SDS011;14791;52.392;13.092;2023-10-31T13:49:32;0.25;;;0.20;;
27303;SDS011;14791;52.392;13.092;2023-10-31T13:52:01;0.20;;;0.20;;
27303;SDS011;14791;52.392;13.092;2023-10-31T13:54:30;0.30;;;0.30;;
27303;SDS011;14791;52.392;13.092;2023-10-31T13:57:00;0.20;;;0.20;;
27303;SDS011;14791;52.392;13.092;2023-10-31T13:59:30;0.20;;;0.20;;
27303;SDS011;14791;52.392;13.092;2023-10-31T14:01:59;0.23;;;0.23;;
27303;SDS011;14791;52.392;13.092;2023-10-31T14:04:28;0.20;;;0.20;;
27303;SDS011;14791;52.392;13.092;2023-10-31T14:06:57;0.17;;;0.17;;
27303;SDS011;14791;52.392;13.092;2023-10-31T14:09:26;0.33;;;0.33;;
27303;SDS011;14791;52.392;13.092;2023-10-31T14:11:55;0.10;;;0.10;;
27303;SDS011;14791;52.392;13.092;2023-10-31T14:14:24;0.20;;;0.20;;
27303;SDS011;14791;52.392;13.092;2023-10-31T14:16:53;0.10;;;0.10;;
27303;SDS011;14791;52.392;13.092;2023-10-31T14:19:22;0.20;;;0.20;;
27303;SDS011;14791;52.392;13.092;2023-10-31T14:21:51;1.17;;;0.27;;
27303;SDS011;14791;52.392;13.092;2023-10-31T14:24:20;0.33;;;0.33;;
27303;SDS011;14791;52.392;13.092;2023-10-31T14:26:49;1.40;;;0.20;;
27303;SDS011;14791;52.392;13.092;2023-10-31T14:29:18;2.10;;;0.40;;
27303;SDS011;14791;52.392;13.092;2023-10-31T14:31:48;0.50;;;0.50;;
27303;SDS011;14791;52.392;13.092;2023-10-31T14:34:16;0.43;;;0.43;;
27303;SDS011;14791;52.392;13.092;2023-10-31T14:36:45;0.50;;;0.30;;
27303;SDS011;14791;52.392;13.092;2023-10-31T14:39:15;0.20;;;0.20;;
27303;SDS011;14791;52.392;13.092;2023-10-31T14:41:44;0.17;;;0.17;;
27303;SDS011;14791;52.392;13.092;2023-10-31T14:44:13;0.23;;;0.23;;
27303;SDS011;14791;52.392;13.092;2023-10-31T14:46:42;0.30;;;0.30;;
27303;SDS011;14791;52.392;13.092;2023-10-31T14:49:11;0.20;;;0.20;;
27303;SDS011;14791;52.392;13.092;2023-10-31T14:51:40;0.30;;;0.30;;
27303;SDS011;14791;52.392;13.092;2023-10-31T14:54:09;0.40;;;0.40;;
27303;SDS011;14791;52.392;13.092;2023-10-31T14:56:38;0.30;;;0.30;;